Time;durP1;ratioP1;P1;durP2;ratioP2;P2;SDS_P1;SDS_P2;PMS_P1;PMS_P2;Temp;Humidity;BMP_temperature;BMP_pressure;BME280_temperature;BME280_humidity;BME280_pressure;Samples;Min_cycle;Max_cycle;Signal;HPM_P1;HPM_P2
2022/01/25 00:31:17;;;;;;;19.90;13.50;;;2.10;99.90;;;;;;10319404;28;20225;-74
2022/01/25 00:36:19;;;;;;;18.47;13.13;;;2.10;99.90;;;;;;10307663;28;20225;-74
2022/01/25 00:41:21;;;;;;;17.27;12.47;;;2.00;99.90;;;;;;10313777;28;20221;-74
2022/01/25 00:46:22;;;;;;;21.53;13.77;;;2.00;99.90;;;;;;10302482;28;20797;-73
2022/01/25 00:56:35;;;;;;;21.93;14.17;;;2.00;99.90;;;;;;10318050;28;20223;-72
2022/01/25 01:01:38;;;;;;;20.97;14.33;;;2.00;99.90;;;;;;10318337;28;20306;-75
2022/01/25 01:06:41;;;;;;;23.47;13.57;;;2.00;99.90;;;;;;10318113;28;20693;-75
2022/01/25 01:11:58;;;;;;;18.17;13.80;;;2.00;99.90;;;;;;10308127;28;20226;-73
2022/01/25 01:48:37;;;;;;;20.17;12.97;;;1.80;99.90;;;;;;10316251;28;20306;-75
2022/01/25 01:53:41;;;;;;;19.97;13.30;;;1.70;99.90;;;;;;10299197;28;20267;-74
2022/01/25 01:58:41;;;;;;;16.87;12.17;;;1.70;99.90;;;;;;10309831;28;20215;-75
2022/01/25 02:03:42;;;;;;;19.50;12.37;;;1.60;99.90;;;;;;10315237;28;20739;-73
2022/01/25 02:08:43;;;;;;;20.07;12.53;;;1.50;99.90;;;;;;10291226;28;20227;-74
2022/01/25 02:13:45;;;;;;;20.20;13.47;;;1.50;99.90;;;;;;10307418;28;20222;-73
2022/01/25 02:24:05;;;;;;;20.80;14.33;;;1.50;99.90;;;;;;10310027;28;20221;-73
2022/01/25 02:29:06;;;;;;;21.07;14.00;;;1.40;99.90;;;;;;10300538;28;20226;-75
2022/01/25 02:34:07;;;;;;;17.50;13.77;;;1.40;99.90;;;;;;10305448;28;20286;-73
2022/01/25 02:39:07;;;;;;;20.90;13.20;;;1.40;99.90;;;;;;10302029;28;20681;-73
2022/01/25 02:44:08;;;;;;;18.57;13.10;;;1.30;99.90;;;;;;10301329;28;20597;-74
2022/01/25 02:49:09;;;;;;;19.23;13.13;;;1.30;99.90;;;;;;10304970;28;20221;-74
2022/01/25 02:54:11;;;;;;;20.00;12.93;;;1.20;99.90;;;;;;10309001;28;20702;-74
2022/01/25 02:59:14;;;;;;;20.63;13.23;;;1.10;99.90;;;;;;10314100;28;20211;-74
2022/01/25 03:04:18;;;;;;;19.47;12.33;;;1.10;99.90;;;;;;10293422;28;20635;-72
2022/01/25 03:09:19;;;;;;;18.77;13.17;;;1.00;99.90;;;;;;10316302;28;20276;-73
2022/01/25 03:14:22;;;;;;;20.00;13.87;;;1.00;99.90;;;;;;10316343;28;20214;-74
2022/01/25 03:24:27;;;;;;;17.97;12.73;;;1.10;99.90;;;;;;10309711;28;20231;-73
2022/01/25 03:29:28;;;;;;;21.43;13.33;;;1.10;99.90;;;;;;10293172;28;20657;-73
2022/01/25 03:34:28;;;;;;;19.30;13.57;;;1.00;99.90;;;;;;10304436;28;20285;-73
2022/01/25 03:39:29;;;;;;;22.57;13.97;;;1.00;99.90;;;;;;10295210;28;20713;-72
2022/01/25 03:44:30;;;;;;;19.70;13.27;;;1.00;99.90;;;;;;10306668;28;20273;-72
2022/01/25 03:54:50;;;;;;;18.60;12.90;;;0.90;99.90;;;;;;10320447;28;20753;-72
2022/01/25 03:59:50;;;;;;;21.33;13.70;;;0.90;99.90;;;;;;10315167;28;20211;-73
2022/01/25 04:04:51;;;;;;;21.13;12.93;;;0.90;99.90;;;;;;10308418;28;20218;-73
2022/01/25 04:09:52;;;;;;;19.37;13.60;;;0.80;99.90;;;;;;10320133;28;20226;-73
2022/01/25 04:14:52;;;;;;;16.87;12.60;;;0.80;99.90;;;;;;10310491;28;20221;-74
2022/01/25 04:20:35;;;;;;;20.23;13.93;;;0.80;99.90;;;;;;10313944;28;20219;-72
2022/01/25 04:25:16;;;;;;;18.83;13.50;;;0.80;99.90;;;;;;10303910;28;20305;-72
2022/01/25 04:30:17;;;;;;;20.27;13.83;;;0.80;99.90;;;;;;10306614;28;20276;-73
2022/01/25 04:56:33;;;;;;;17.47;11.70;;;0.70;99.90;;;;;;10311247;28;20564;-73
2022/01/25 05:01:35;;;;;;;21.43;12.37;;;0.60;99.90;;;;;;10309777;28;20218;-73
2022/01/25 05:06:36;;;;;;;19.93;12.80;;;0.60;99.90;;;;;;10304382;28;20214;-73
2022/01/25 05:11:41;;;;;;;19.90;12.17;;;0.50;99.90;;;;;;10317901;28;20226;-73
2022/01/25 05:27:12;;;;;;;15.87;11.40;;;0.30;99.90;;;;;;10316662;28;20253;-73
2022/01/25 05:32:13;;;;;;;19.70;12.53;;;0.20;99.90;;;;;;10295607;28;20233;-74
2022/01/25 05:37:14;;;;;;;23.30;14.30;;;0.20;99.90;;;;;;10315124;28;20304;-74
2022/01/25 05:47:34;;;;;;;19.43;10.87;;;0.30;99.90;;;;;;10315947;28;20660;-72
2022/01/25 05:52:37;;;;;;;17.80;10.87;;;0.40;99.90;;;;;;10317439;28;20246;-74
2022/01/25 05:57:38;;;;;;;18.07;12.03;;;0.60;99.90;;;;;;10308394;28;20565;-73
2022/01/25 06:02:38;;;;;;;18.47;11.60;;;0.80;99.90;;;;;;10315625;28;20218;-73
2022/01/25 06:07:39;;;;;;;20.60;11.40;;;0.90;99.90;;;;;;10314299;28;20221;-72
2022/01/25 06:12:42;;;;;;;23.43;13.00;;;0.90;99.90;;;;;;10308192;28;20230;-73
2022/01/25 06:17:43;;;;;;;20.33;11.97;;;1.00;99.90;;;;;;10306612;28;20249;-73
2022/01/25 06:22:44;;;;;;;20.87;11.67;;;1.00;99.90;;;;;;10302102;28;20232;-72
2022/01/25 06:27:45;;;;;;;20.87;12.43;;;1.00;99.90;;;;;;10304133;28;20222;-73
2022/01/25 06:32:46;;;;;;;19.97;12.63;;;1.00;99.90;;;;;;10306337;28;20233;-75
2022/01/25 06:37:47;;;;;;;19.17;12.37;;;1.00;99.90;;;;;;10309018;28;20225;-73
2022/01/25 06:42:51;;;;;;;18.67;11.17;;;0.90;99.90;;;;;;10298881;28;20225;-73
2022/01/25 06:47:52;;;;;;;21.50;12.10;;;0.90;99.90;;;;;;10311637;28;20268;-76
2022/01/25 06:52:52;;;;;;;19.07;11.90;;;1.00;99.90;;;;;;10314890;28;20756;-76
2022/01/25 06:57:53;;;;;;;21.27;12.13;;;0.90;99.90;;;;;;10312215;28;20217;-75
2022/01/25 07:02:53;;;;;;;22.47;12.90;;;0.90;99.90;;;;;;10314656;28;20265;-75
2022/01/25 07:07:56;;;;;;;20.27;11.70;;;0.80;99.90;;;;;;10293548;28;20238;-75
2022/01/25 07:12:56;;;;;;;24.53;13.07;;;0.60;99.90;;;;;;10289257;28;20226;-75
2022/01/25 07:17:57;;;;;;;25.53;13.47;;;0.50;99.90;;;;;;10309690;28;20316;-75
2022/01/25 07:22:57;;;;;;;21.07;11.73;;;0.50;99.90;;;;;;10293874;28;20675;-75
2022/01/25 07:27:58;;;;;;;21.07;13.20;;;0.50;99.90;;;;;;10299349;28;20261;-75
2022/01/25 07:33:02;;;;;;;20.53;13.20;;;0.60;99.90;;;;;;10311065;28;20234;-75
2022/01/25 07:38:03;;;;;;;27.17;13.37;;;0.70;99.90;;;;;;10299267;28;20214;-75
2022/01/25 07:43:07;;;;;;;20.10;11.20;;;0.90;99.90;;;;;;10300373;28;20226;-75
2022/01/25 07:48:09;;;;;;;30.90;12.27;;;1.00;99.90;;;;;;10309414;28;20245;-75
2022/01/25 07:53:10;;;;;;;23.40;11.40;;;1.30;99.90;;;;;;10309518;28;20242;-75
2022/01/25 07:58:11;;;;;;;26.53;12.10;;;1.50;99.90;;;;;;10318100;28;20233;-75
2022/01/25 08:03:11;;;;;;;26.23;12.03;;;1.80;99.90;;;;;;10292040;28;20712;-76
2022/01/25 08:08:12;;;;;;;18.27;10.50;;;2.00;99.90;;;;;;10287528;28;20232;-74
2022/01/25 08:13:13;;;;;;;20.77;11.90;;;2.20;99.90;;;;;;10288044;28;20223;-74
2022/01/25 08:18:13;;;;;;;19.77;11.13;;;2.30;99.90;;;;;;10294123;28;20221;-75
2022/01/25 08:23:14;;;;;;;20.70;11.37;;;2.40;99.90;;;;;;10319644;28;20230;-75
2022/01/25 08:28:15;;;;;;;17.60;11.30;;;2.40;99.90;;;;;;10307151;28;20231;-75
2022/01/25 08:33:16;;;;;;;20.63;11.87;;;2.50;99.90;;;;;;10301017;28;20230;-75
2022/01/25 08:38:16;;;;;;;15.20;10.43;;;2.50;99.90;;;;;;10313949;28;20218;-76
2022/01/25 08:43:17;;;;;;;15.23;10.43;;;2.60;99.90;;;;;;10300088;28;20218;-76
2022/01/25 08:48:18;;;;;;;21.77;12.53;;;2.50;99.90;;;;;;10316272;28;20226;-76
2022/01/25 08:53:19;;;;;;;18.13;11.43;;;2.50;99.90;;;;;;10301378;28;20325;-76
2022/01/25 08:58:19;;;;;;;19.30;12.13;;;2.60;99.90;;;;;;10321683;28;20284;-76
2022/01/25 09:03:20;;;;;;;25.80;14.63;;;2.70;99.90;;;;;;10301471;28;20575;-75
2022/01/25 09:08:22;;;;;;;28.50;16.57;;;2.70;99.90;;;;;;10312934;28;20282;-76
2022/01/25 09:13:24;;;;;;;26.17;16.70;;;2.80;99.90;;;;;;10300511;28;20314;-76
2022/01/25 09:18:24;;;;;;;21.40;14.43;;;2.90;99.90;;;;;;10298880;28;20250;-75
2022/01/25 09:23:26;;;;;;;18.13;13.07;;;2.90;99.90;;;;;;10322647;28;20264;-75
2022/01/25 09:28:26;;;;;;;21.47;13.70;;;3.10;99.90;;;;;;10313493;28;20226;-75
2022/01/25 09:33:27;;;;;;;22.27;14.17;;;3.20;99.90;;;;;;10304346;28;20685;-76
2022/01/25 09:38:28;;;;;;;23.40;14.13;;;3.10;99.90;;;;;;10310477;28;20738;-75
2022/01/25 09:43:31;;;;;;;18.33;13.30;;;3.20;99.90;;;;;;10309780;28;20223;-75
2022/01/25 09:48:32;;;;;;;20.63;14.00;;;3.20;99.90;;;;;;10309032;28;20760;-76
2022/01/25 09:53:33;;;;;;;22.20;14.67;;;3.30;99.90;;;;;;10310192;28;20334;-75
2022/01/25 09:58:34;;;;;;;23.30;15.30;;;3.40;99.90;;;;;;10300375;28;20221;-75
2022/01/25 10:03:38;;;;;;;24.33;15.47;;;3.50;99.90;;;;;;10309235;28;20250;-75
2022/01/25 10:08:39;;;;;;;27.70;16.33;;;3.50;99.90;;;;;;10293016;28;20269;-75
2022/01/25 10:13:43;;;;;;;29.33;16.07;;;3.50;99.90;;;;;;10289132;28;20227;-75
2022/01/25 10:18:56;;;;;;;29.63;17.37;;;3.60;99.90;;;;;;10315849;28;20218;-75
2022/01/25 10:24:17;;;;;;;31.43;16.03;;;3.60;99.90;;;;;;10316609;28;20690;-74
2022/01/25 10:29:30;;;;;;;27.97;16.63;;;3.60;99.90;;;;;;10310442;28;20713;-75
2022/01/25 10:34:50;;;;;;;31.07;17.33;;;3.60;99.90;;;;;;10331710;28;20321;-75
2022/01/25 10:39:52;;;;;;;27.07;15.80;;;3.40;99.90;;;;;;10326412;28;20218;-75
2022/01/25 10:45:02;;;;;;;29.27;16.00;;;3.40;99.90;;;;;;10312093;28;20816;-75
2022/01/25 10:50:16;;;;;;;28.13;14.93;;;3.40;99.90;;;;;;10329623;28;20224;-75
2022/01/25 10:55:16;;;;;;;26.87;15.63;;;3.40;99.90;;;;;;10326089;28;20253;-77
2022/01/25 11:00:17;;;;;;;25.97;15.97;;;3.50;99.90;;;;;;10327310;28;20206;-75
2022/01/25 11:05:18;;;;;;;26.37;16.23;;;3.70;99.90;;;;;;10320987;28;20193;-76
2022/01/25 11:10:21;;;;;;;30.23;16.83;;;3.70;99.90;;;;;;10291359;28;20194;-75
2022/01/25 11:15:22;;;;;;;26.50;15.07;;;3.70;99.90;;;;;;10293180;28;20691;-76
2022/01/25 11:20:22;;;;;;;27.20;15.23;;;3.70;99.90;;;;;;10312754;28;20309;-75
2022/01/25 11:25:24;;;;;;;26.57;16.37;;;3.70;99.90;;;;;;10320049;28;25180;-76
2022/01/25 11:30:25;;;;;;;26.13;16.03;;;3.60;99.90;;;;;;10306345;28;20215;-75
2022/01/25 11:35:27;;;;;;;26.53;15.67;;;3.60;99.90;;;;;;10311613;28;20241;-75
2022/01/25 11:40:33;;;;;;;27.87;16.23;;;3.60;99.90;;;;;;10304880;28;20299;-77
2022/01/25 11:45:39;;;;;;;38.60;15.77;;;3.60;99.90;;;;;;10321389;28;20221;-76
2022/01/25 11:50:43;;;;;;;27.83;16.27;;;3.60;99.90;;;;;;10303887;28;20233;-76
2022/01/25 11:55:54;;;;;;;30.07;17.43;;;3.60;99.90;;;;;;10311576;28;20227;-75
2022/01/25 12:01:03;;;;;;;32.23;18.17;;;3.80;99.90;;;;;;10296419;28;20686;-75
2022/01/25 12:06:18;;;;;;;32.87;16.27;;;3.80;99.90;;;;;;10308585;28;20261;-75
2022/01/25 12:11:29;;;;;;;32.03;16.00;;;3.70;99.90;;;;;;10307720;28;20614;-76
2022/01/25 12:16:30;;;;;;;26.37;15.00;;;3.70;99.90;;;;;;10321574;28;20218;-78
2022/01/25 12:21:53;;;;;;;26.47;15.50;;;3.80;99.90;;;;;;10298677;28;20257;-76
2022/01/25 12:27:05;;;;;;;26.23;15.17;;;3.90;99.90;;;;;;10312867;28;20232;-76
2022/01/25 12:32:23;;;;;;;27.93;16.17;;;4.00;99.90;;;;;;10292688;28;20314;-74
2022/01/25 12:37:42;;;;;;;33.40;16.63;;;4.10;99.90;;;;;;10305609;28;20214;-75
2022/01/25 12:42:42;;;;;;;27.93;15.30;;;4.30;99.90;;;;;;10313760;28;20222;-75
2022/01/25 12:47:53;;;;;;;26.57;14.53;;;4.20;99.90;;;;;;10313643;28;20596;-76
2022/01/25 12:52:57;;;;;;;28.87;14.83;;;4.30;99.90;;;;;;10332858;28;20269;-76
2022/01/25 12:57:58;;;;;;;27.73;15.57;;;4.40;99.90;;;;;;10307139;28;20223;-75
2022/01/25 13:03:29;;;;;;;30.43;16.37;;;4.40;99.90;;;;;;10323308;28;20694;-75
2022/01/25 13:08:39;;;;;;;29.43;16.90;;;4.40;99.90;;;;;;10312446;28;20288;-74
2022/01/25 13:13:56;;;;;;;30.07;16.27;;;4.40;99.90;;;;;;10312079;28;20238;-74
2022/01/25 13:18:58;;;;;;;30.90;16.43;;;4.40;99.90;;;;;;10317916;28;20208;-75
2022/01/25 13:24:07;;;;;;;34.97;17.80;;;4.40;99.90;;;;;;10310436;28;20284;-76
2022/01/25 13:30:39;;;;;;;35.23;18.77;;;4.40;99.90;;;;;;10302003;28;20230;-74
2022/01/25 13:34:36;;;;;;;30.63;16.77;;;4.40;99.90;;;;;;10315683;28;20222;-76
2022/01/25 13:39:40;;;;;;;33.90;17.50;;;4.30;99.90;;;;;;10317348;28;20218;-76
2022/01/25 13:50:00;;;;;;;36.37;18.40;;;4.30;99.90;;;;;;10314160;28;20690;-75
2022/01/25 13:55:11;;;;;;;36.83;18.50;;;4.30;99.90;;;;;;10312338;28;20229;-75
2022/01/25 14:00:12;;;;;;;36.13;18.97;;;4.20;99.90;;;;;;10311505;28;20226;-75
2022/01/25 14:05:12;;;;;;;44.57;21.43;;;4.20;99.90;;;;;;10315248;28;20191;-76
2022/01/25 14:10:21;;;;;;;46.73;22.10;;;4.20;99.90;;;;;;10299582;28;20690;-75
2022/01/25 14:26:07;;;;;;;51.97;24.00;;;4.20;99.90;;;;;;10311193;28;20619;-75
2022/01/25 14:31:19;;;;;;;55.70;24.13;;;4.20;99.90;;;;;;10312184;28;20681;-75
2022/01/25 14:36:22;;;;;;;53.90;25.10;;;4.20;99.90;;;;;;10300617;28;20215;-76
2022/01/25 14:41:28;;;;;;;56.93;25.30;;;4.10;99.90;;;;;;10308327;28;20305;-75
2022/01/25 14:46:36;;;;;;;50.60;24.70;;;4.10;99.90;;;;;;10316036;28;20662;-75
2022/01/25 14:51:45;;;;;;;57.37;26.03;;;4.10;99.90;;;;;;10315510;28;20214;-76
2022/01/25 14:56:52;;;;;;;60.33;25.40;;;4.00;99.90;;;;;;10314685;28;20225;-76
2022/01/25 15:02:15;;;;;;;63.50;27.33;;;4.00;99.90;;;;;;10304757;28;20240;-75
2022/01/25 15:07:20;;;;;;;59.77;26.37;;;4.00;99.90;;;;;;10291919;28;20249;-75
2022/01/25 15:12:25;;;;;;;55.63;25.17;;;4.00;99.90;;;;;;10288445;28;20803;-75
2022/01/25 15:17:26;;;;;;;58.50;25.43;;;3.90;99.90;;;;;;10296111;28;20222;-75
2022/01/25 15:22:28;;;;;;;58.10;23.93;;;3.90;99.90;;;;;;10305995;28;20218;-76
2022/01/25 15:27:31;;;;;;;58.00;24.93;;;3.80;99.90;;;;;;10306324;28;20230;-76
2022/01/25 15:32:35;;;;;;;59.57;26.23;;;3.70;99.90;;;;;;10315222;28;20234;-77
2022/01/25 15:37:40;;;;;;;54.40;25.00;;;3.80;99.90;;;;;;10319506;28;20282;-80
2022/01/25 15:58:17;;;;;;;59.73;25.57;;;3.70;99.90;;;;;;10299527;28;20227;-79
2022/01/25 16:18:58;;;;;;;58.60;25.77;;;3.70;99.90;;;;;;10349306;28;20243;-78
2022/01/25 16:34:31;;;;;;;50.60;24.07;;;3.60;99.90;;;;;;10284655;28;20245;-77
2022/01/25 16:39:38;;;;;;;56.40;24.10;;;3.60;99.90;;;;;;10436398;23;20233;-78
2022/01/25 16:44:41;;;;;;;51.80;24.70;;;3.60;99.90;;;;;;10405258;28;20221;-75
2022/01/25 16:49:42;;;;;;;55.60;25.63;;;3.60;99.90;;;;;;10404951;28;20322;-78
2022/01/25 17:00:11;;;;;;;48.53;23.80;;;3.70;99.90;;;;;;10318850;28;20250;-79
2022/01/25 17:05:14;;;;;;;50.27;25.93;;;3.60;99.90;;;;;;10296075;23;20228;-78
2022/01/25 17:10:17;;;;;;;53.70;25.57;;;3.60;99.90;;;;;;4555602;23;20214;-79
2022/01/25 17:52:12;;;;;;;33.43;19.57;;;3.70;99.90;;;;;;10348145;28;20261;-78
2022/01/25 17:57:22;;;;;;;36.20;19.33;;;3.70;99.90;;;;;;10347757;23;20237;-76
2022/01/25 18:02:26;;;;;;;38.60;20.07;;;3.70;99.90;;;;;;10358159;28;20638;-76
2022/01/25 18:07:27;;;;;;;40.77;21.60;;;3.70;99.90;;;;;;10360971;28;20221;-75
2022/01/25 18:12:28;;;;;;;48.33;24.80;;;3.60;99.90;;;;;;10348134;28;20443;-77
2022/01/25 18:17:29;;;;;;;43.83;23.17;;;3.60;99.90;;;;;;10355174;28;20225;-77
2022/01/25 18:22:37;;;;;;;35.37;19.27;;;3.70;99.90;;;;;;10332740;28;20823;-77
2022/01/25 18:27:38;;;;;;;35.70;19.27;;;3.70;99.90;;;;;;10355039;28;20244;-77
2022/01/25 18:32:44;;;;;;;31.43;20.03;;;3.80;99.90;;;;;;10354469;28;20229;-75
2022/01/25 18:37:44;;;;;;;34.13;20.33;;;3.80;99.90;;;;;;10347209;28;20220;-75
2022/01/25 18:42:46;;;;;;;32.83;18.97;;;3.80;99.90;;;;;;10345779;28;20213;-75
2022/01/25 18:47:47;;;;;;;33.53;18.93;;;3.80;99.90;;;;;;10351857;28;20221;-75
2022/01/25 18:52:49;;;;;;;31.30;19.47;;;3.80;99.90;;;;;;10353649;28;20827;-75
2022/01/25 18:57:49;;;;;;;35.10;20.13;;;3.70;99.90;;;;;;10357201;28;20864;-75
2022/01/25 19:02:50;;;;;;;32.03;19.23;;;3.70;99.90;;;;;;10345166;28;20237;-75
2022/01/25 19:07:51;;;;;;;39.13;21.23;;;3.70;99.90;;;;;;10344799;28;20224;-75
2022/01/25 19:12:52;;;;;;;35.10;20.10;;;3.80;99.90;;;;;;10349661;28;20688;-75
2022/01/25 19:17:53;;;;;;;37.73;20.97;;;3.80;99.90;;;;;;10344806;28;20300;-75
2022/01/25 19:22:54;;;;;;;37.40;20.67;;;3.80;99.90;;;;;;10350156;28;20221;-75
2022/01/25 19:27:55;;;;;;;34.47;21.10;;;3.80;99.90;;;;;;10351038;28;20704;-75
2022/01/25 19:33:01;;;;;;;39.70;21.00;;;3.80;99.90;;;;;;10332535;28;20232;-77
2022/01/25 19:38:04;;;;;;;32.53;20.73;;;3.90;99.90;;;;;;10341957;28;20277;-75
2022/01/25 19:43:06;;;;;;;35.37;21.13;;;3.90;99.90;;;;;;10346704;28;20221;-76
2022/01/25 19:48:06;;;;;;;37.40;22.23;;;3.90;99.90;;;;;;10347333;28;20222;-76
2022/01/25 19:53:11;;;;;;;38.80;21.57;;;3.90;99.90;;;;;;10346608;28;20221;-75
2022/01/25 19:58:12;;;;;;;33.97;18.43;;;3.80;99.90;;;;;;10350817;28;20225;-76
2022/01/25 20:03:15;;;;;;;35.43;20.40;;;3.80;99.90;;;;;;10345187;28;20221;-75
2022/01/25 20:08:16;;;;;;;34.67;20.47;;;3.80;99.90;;;;;;10349417;28;20218;-75
2022/01/25 20:13:17;;;;;;;37.73;19.63;;;3.80;99.90;;;;;;10341608;28;20225;-74
2022/01/25 20:18:17;;;;;;;37.20;20.17;;;3.80;99.90;;;;;;10347409;28;20593;-77
2022/01/25 20:23:25;;;;;;;38.53;21.73;;;3.80;99.90;;;;;;10345191;28;20308;-76
2022/01/25 20:28:35;;;;;;;39.57;22.20;;;3.90;99.90;;;;;;10355874;28;20245;-76
2022/01/25 20:33:40;;;;;;;34.50;19.97;;;3.90;99.90;;;;;;10358318;28;20715;-76
2022/01/25 20:38:44;;;;;;;32.20;19.57;;;3.90;99.90;;;;;;10349155;28;20230;-77
2022/01/25 20:43:45;;;;;;;39.33;21.40;;;3.90;99.90;;;;;;10349406;28;20221;-75
2022/01/25 20:48:48;;;;;;;38.13;20.40;;;4.00;99.90;;;;;;10345446;28;20222;-76
2022/01/25 20:53:49;;;;;;;37.90;20.67;;;3.90;99.90;;;;;;10339203;28;20224;-75
2022/01/25 20:58:56;;;;;;;35.50;21.37;;;3.90;99.90;;;;;;10356373;28;20223;-76
2022/01/25 21:09:06;;;;;;;40.40;20.83;;;3.80;99.90;;;;;;10356073;28;20300;-76
2022/01/25 21:14:06;;;;;;;39.70;20.17;;;3.80;99.90;;;;;;10356321;28;20321;-75
2022/01/25 21:19:10;;;;;;;35.97;20.33;;;3.80;99.90;;;;;;10352892;28;20815;-76
2022/01/25 21:24:11;;;;;;;32.97;19.47;;;3.70;99.90;;;;;;10351688;28;20305;-76
2022/01/25 21:29:16;;;;;;;35.43;19.73;;;3.70;99.90;;;;;;10357159;28;20233;-77
2022/01/25 21:34:20;;;;;;;33.90;20.03;;;3.70;99.90;;;;;;10345101;28;20303;-75
2022/01/25 21:39:20;;;;;;;33.80;19.17;;;3.60;99.90;;;;;;10369653;28;20221;-76
2022/01/25 21:44:33;;;;;;;36.37;21.03;;;3.60;99.90;;;;;;10354558;28;20222;-77
2022/01/25 21:49:40;;;;;;;37.83;22.40;;;3.70;99.90;;;;;;10329089;28;20225;-75
2022/01/25 21:54:41;;;;;;;40.97;22.70;;;3.60;99.90;;;;;;10347917;28;20305;-74
2022/01/25 21:59:42;;;;;;;40.67;23.30;;;3.70;99.90;;;;;;10347669;28;20221;-74
2022/01/25 22:04:48;;;;;;;43.80;24.77;;;3.60;99.90;;;;;;10355948;28;20217;-74
2022/01/25 22:09:49;;;;;;;45.37;23.83;;;3.60;99.90;;;;;;10352183;28;20262;-74
2022/01/25 22:14:50;;;;;;;50.67;25.70;;;3.60;99.90;;;;;;10349252;28;20221;-73
2022/01/25 22:19:50;;;;;;;45.80;25.07;;;3.60;99.90;;;;;;10349631;28;20523;-75
2022/01/25 22:24:51;;;;;;;45.57;23.50;;;3.60;99.90;;;;;;10345309;28;20768;-75
2022/01/25 22:29:51;;;;;;;49.37;25.20;;;3.60;99.90;;;;;;10346873;28;20274;-74
2022/01/25 22:34:52;;;;;;;46.47;23.93;;;3.50;99.90;;;;;;10347473;28;20226;-73
2022/01/25 22:39:53;;;;;;;48.63;25.43;;;3.50;99.90;;;;;;10354349;28;20213;-74
2022/01/25 22:44:54;;;;;;;50.77;24.90;;;3.50;99.90;;;;;;10356385;28;20220;-74
2022/01/25 22:49:55;;;;;;;55.20;25.57;;;3.50;99.90;;;;;;10347983;28;20228;-75
2022/01/25 22:54:55;;;;;;;49.60;25.13;;;3.40;99.90;;;;;;10352746;28;20225;-75
2022/01/25 22:59:56;;;;;;;50.43;25.80;;;3.40;99.90;;;;;;10346920;28;20224;-76
2022/01/25 23:04:57;;;;;;;52.67;25.30;;;3.40;99.90;;;;;;10360115;28;21050;-75
2022/01/25 23:09:59;;;;;;;43.57;22.33;;;3.40;99.90;;;;;;10357487;28;20866;-76
2022/01/25 23:15:03;;;;;;;49.87;24.73;;;3.40;99.90;;;;;;10339879;28;20602;-75
2022/01/25 23:20:16;;;;;;;47.80;25.13;;;3.40;99.90;;;;;;10335887;28;20206;-75
2022/01/25 23:25:20;;;;;;;49.30;22.87;;;3.30;99.90;;;;;;10351130;28;20221;-74
2022/01/25 23:30:32;;;;;;;48.93;23.97;;;3.30;99.90;;;;;;10350962;28;20181;-76
2022/01/25 23:35:50;;;;;;;41.07;22.57;;;3.20;99.90;;;;;;10343268;28;20299;-74
2022/01/25 23:41:05;;;;;;;52.63;23.57;;;3.20;99.90;;;;;;10342755;28;20218;-75
2022/01/25 23:46:09;;;;;;;47.77;23.17;;;3.20;99.90;;;;;;10349593;28;20213;-74
2022/01/25 23:51:17;;;;;;;42.90;22.23;;;3.20;99.90;;;;;;10351553;28;20241;-75
